Wetterdaten: Woche 18.04.16 - 24.04.16 (KW16)
Datum Zeit Temperatur Luftfeuchte Luftdruck Niederschlag Windrichtung Sonnenschein Solar Wind
18.04.2016 00:00 5,0 C 97 % 1015,2 hPa 0,2 l/m NO 0,00 h 0 W/m 5,2 km/h (1 Bft)
18.04.2016 01:00 4,9 C 97 % 1015,4 hPa 0,0 l/m N-NO 0,00 h 0 W/m 7,6 km/h (2 Bft)
18.04.2016 02:00 4,8 C 98 % 1015,5 hPa 0,0 l/m N-NO 0,00 h 0 W/m 4,8 km/h (1 Bft)
18.04.2016 03:00 4,5 C 97 % 1015,6 hPa 0,0 l/m N-NO 0,00 h 0 W/m 3,6 km/h (1 Bft)
18.04.2016 04:00 4,4 C 98 % 1015,9 hPa 0,2 l/m N-NO 0,00 h 0 W/m 3,7 km/h (1 Bft)
18.04.2016 05:00 4,4 C 98 % 1016,0 hPa 0,0 l/m NO 0,00 h 0 W/m 6,2 km/h (2 Bft)
18.04.2016 06:00 4,4 C 98 % 1016,4 hPa 0,0 l/m NO 0,00 h 5 W/m 4,3 km/h (1 Bft)
18.04.2016 07:00 4,6 C 98 % 1016,7 hPa 0,0 l/m NO 0,00 h 18 W/m 6,3 km/h (2 Bft)
18.04.2016 08:00 4,9 C 98 % 1016,7 hPa 0,0 l/m O-NO 0,00 h 41 W/m 11,4 km/h (2 Bft)
18.04.2016 09:00 5,4 C 97 % 1017,2 hPa 0,0 l/m O-NO 0,00 h 57 W/m 12,8 km/h (3 Bft)
18.04.2016 10:00 5,9 C 96 % 1017,5 hPa 0,0 l/m NO 0,00 h 76 W/m 12,0 km/h (2 Bft)
18.04.2016 11:00 6,4 C 94 % 1017,6 hPa 0,0 l/m O-NO 0,00 h 139 W/m 13,2 km/h (3 Bft)
18.04.2016 12:00 7,4 C 89 % 1017,6 hPa 0,0 l/m O-NO 0,00 h 212 W/m 15,3 km/h (3 Bft)
18.04.2016 13:00 7,8 C 87 % 1017,7 hPa 0,0 l/m O-NO 0,00 h 126 W/m 13,6 km/h (3 Bft)
18.04.2016 14:00 7,8 C 88 % 1017,8 hPa 0,0 l/m NO 0,00 h 130 W/m 14,9 km/h (3 Bft)
18.04.2016 15:00 7,7 C 87 % 1018,0 hPa 0,0 l/m NO 0,00 h 69 W/m 11,0 km/h (2 Bft)
18.04.2016 16:00 7,5 C 91 % 1018,3 hPa 0,2 l/m N-NO 0,00 h 51 W/m 10,1 km/h (2 Bft)
18.04.2016 17:00 7,3 C 93 % 1018,6 hPa 0,2 l/m N-NO 0,00 h 43 W/m 9,3 km/h (2 Bft)
18.04.2016 18:00 7,2 C 91 % 1019,3 hPa 0,4 l/m N 0,00 h 29 W/m 6,4 km/h (2 Bft)
18.04.2016 19:00 7,2 C 93 % 1019,7 hPa 0,0 l/m N 0,00 h 25 W/m 2,7 km/h (1 Bft)
18.04.2016 20:00 5,7 C 95 % 1020,6 hPa 0,0 l/m SW 0,00 h 6 W/m 9,9 km/h (2 Bft)
18.04.2016 21:00 4,4 C 97 % 1021,7 hPa 0,0 l/m S-SW 0,00 h 0 W/m 11,4 km/h (2 Bft)
18.04.2016 22:00 3,9 C 98 % 1022,3 hPa 0,0 l/m S-SW 0,00 h 0 W/m 13,6 km/h (3 Bft)
18.04.2016 23:00 3,6 C 98 % 1023,1 hPa 0,0 l/m S-SW 0,00 h 0 W/m 13,7 km/h (3 Bft)
19.04.2016 00:00 3,4 C 99 % 1023,6 hPa 0,0 l/m S-SW 0,00 h 0 W/m 10,9 km/h (2 Bft)
19.04.2016 01:00 3,6 C 99 % 1023,8 hPa 0,0 l/m S-SW 0,00 h 0 W/m 10,3 km/h (2 Bft)
19.04.2016 02:00 3,7 C 99 % 1023,7 hPa 0,0 l/m S-SW 0,00 h 0 W/m 7,0 km/h (2 Bft)
19.04.2016 03:00 3,8 C 99 % 1023,8 hPa 0,0 l/m S-SW 0,00 h 0 W/m 5,5 km/h (1 Bft)
19.04.2016 04:00 3,8 C 99 % 1024,0 hPa 0,0 l/m N 0,00 h 0 W/m 0,8 km/h (0 Bft)
19.04.2016 05:00 3,9 C 99 % 1024,3 hPa 0,0 l/m S-SW 0,00 h 0 W/m 3,3 km/h (1 Bft)
19.04.2016 06:00 3,8 C 100 % 1024,6 hPa 0,0 l/m S-SW 0,00 h 7 W/m 6,8 km/h (2 Bft)
19.04.2016 07:00 4,1 C 100 % 1024,8 hPa 0,0 l/m S-SW 0,00 h 48 W/m 8,2 km/h (2 Bft)
19.04.2016 08:00 4,5 C 99 % 1025,2 hPa 0,0 l/m S-SW 0,00 h 92 W/m 11,0 km/h (2 Bft)
19.04.2016 09:00 4,8 C 97 % 1025,6 hPa 0,0 l/m S-SW 0,00 h 128 W/m 7,4 km/h (2 Bft)
19.04.2016 10:00 5,8 C 94 % 1025,7 hPa 0,0 l/m SW 0,00 h 190 W/m 9,1 km/h (2 Bft)
19.04.2016 11:00 7,4 C 89 % 1025,8 hPa 0,0 l/m S-SW 0,75 h 646 W/m 12,0 km/h (2 Bft)
19.04.2016 12:00 9,5 C 83 % 1025,4 hPa 0,0 l/m S-SW 1,00 h 810 W/m 15,0 km/h (3 Bft)
19.04.2016 13:00 11,4 C 70 % 1024,9 hPa 0,0 l/m S-SO 0,92 h 811 W/m 16,1 km/h (3 Bft)
19.04.2016 14:00 12,0 C 67 % 1024,3 hPa 0,0 l/m W-SW 0,50 h 526 W/m 16,1 km/h (3 Bft)
19.04.2016 15:00 12,8 C 64 % 1023,7 hPa 0,0 l/m W-SW 1,00 h 765 W/m 16,2 km/h (3 Bft)
19.04.2016 16:00 13,3 C 61 % 1023,3 hPa 0,0 l/m SW 0,67 h 519 W/m 11,8 km/h (2 Bft)
19.04.2016 17:00 13,4 C 60 % 1023,0 hPa 0,0 l/m SW 1,00 h 479 W/m 9,5 km/h (2 Bft)
19.04.2016 18:00 12,5 C 62 % 1023,2 hPa 0,0 l/m S-SW 0,00 h 82 W/m 6,6 km/h (2 Bft)
19.04.2016 19:00 11,8 C 66 % 1023,0 hPa 0,0 l/m S-SW 0,00 h 39 W/m 5,3 km/h (1 Bft)
19.04.2016 20:00 10,7 C 70 % 1023,6 hPa 0,0 l/m NO 0,00 h 6 W/m 5,2 km/h (1 Bft)
19.04.2016 21:00 9,6 C 72 % 1024,5 hPa 0,0 l/m N-NO 0,00 h 0 W/m 11,4 km/h (2 Bft)
19.04.2016 22:00 8,7 C 73 % 1025,2 hPa 0,0 l/m N-NO 0,00 h 0 W/m 9,0 km/h (2 Bft)
19.04.2016 23:00 8,1 C 75 % 1025,7 hPa 0,0 l/m N-NO 0,00 h 0 W/m 3,1 km/h (1 Bft)
20.04.2016 00:00 6,2 C 84 % 1025,6 hPa 0,0 l/m N 0,00 h 0 W/m 0,0 km/h (0 Bft)
20.04.2016 01:00 5,0 C 89 % 1025,6 hPa 0,0 l/m N 0,00 h 0 W/m 0,4 km/h (0 Bft)
20.04.2016 02:00 4,3 C 91 % 1025,4 hPa 0,0 l/m N 0,00 h 0 W/m 0,0 km/h (0 Bft)
20.04.2016 03:00 4,2 C 92 % 1025,5 hPa 0,0 l/m N 0,00 h 0 W/m 0,0 km/h (0 Bft)
20.04.2016 04:00 4,0 C 92 % 1025,4 hPa 0,0 l/m N 0,00 h 0 W/m 0,4 km/h (0 Bft)
20.04.2016 05:00 3,4 C 93 % 1025,5 hPa 0,0 l/m N-NO 0,00 h 0 W/m 1,1 km/h (0 Bft)
20.04.2016 06:00 3,0 C 94 % 1025,9 hPa 0,0 l/m N 0,00 h 12 W/m 0,4 km/h (0 Bft)
20.04.2016 07:00 4,0 C 93 % 1026,3 hPa 0,0 l/m N-NO 0,08 h 81 W/m 2,4 km/h (1 Bft)
20.04.2016 08:00 6,7 C 83 % 1026,7 hPa 0,0 l/m NO 1,00 h 255 W/m 6,0 km/h (2 Bft)
20.04.2016 09:00 8,9 C 73 % 1026,5 hPa 0,0 l/m O-NO 1,00 h 434 W/m 15,2 km/h (3 Bft)
20.04.2016 10:00 10,3 C 67 % 1026,4 hPa 0,0 l/m NO 1,00 h 595 W/m 17,4 km/h (3 Bft)
20.04.2016 11:00 11,8 C 61 % 1026,3 hPa 0,0 l/m O-NO 1,00 h 723 W/m 19,2 km/h (3 Bft)
20.04.2016 12:00 13,1 C 56 % 1026,1 hPa 0,0 l/m O 1,00 h 805 W/m 19,7 km/h (3 Bft)
20.04.2016 13:00 14,5 C 51 % 1025,8 hPa 0,0 l/m O-SO 1,00 h 837 W/m 17,6 km/h (3 Bft)
20.04.2016 14:00 15,3 C 46 % 1025,6 hPa 0,0 l/m O 1,00 h 816 W/m 16,8 km/h (3 Bft)
20.04.2016 15:00 16,2 C 42 % 1025,0 hPa 0,0 l/m O-NO 1,00 h 744 W/m 13,8 km/h (3 Bft)
20.04.2016 16:00 16,4 C 42 % 1024,2 hPa 0,0 l/m O-NO 1,00 h 626 W/m 16,4 km/h (3 Bft)
20.04.2016 17:00 16,4 C 44 % 1023,9 hPa 0,0 l/m O 1,00 h 466 W/m 16,0 km/h (3 Bft)
20.04.2016 18:00 15,8 C 47 % 1023,7 hPa 0,0 l/m NO 1,00 h 285 W/m 17,6 km/h (3 Bft)
20.04.2016 19:00 14,3 C 51 % 1023,4 hPa 0,0 l/m O 0,33 h 59 W/m 15,0 km/h (3 Bft)
20.04.2016 20:00 12,2 C 59 % 1023,5 hPa 0,0 l/m O-NO 0,00 h 8 W/m 7,0 km/h (2 Bft)
20.04.2016 21:00 9,8 C 69 % 1023,9 hPa 0,0 l/m O-NO 0,00 h 0 W/m 5,6 km/h (1 Bft)
20.04.2016 22:00 8,9 C 69 % 1023,7 hPa 0,0 l/m O-NO 0,00 h 0 W/m 6,8 km/h (2 Bft)
20.04.2016 23:00 7,8 C 71 % 1023,4 hPa 0,0 l/m O-NO 0,00 h 0 W/m 5,6 km/h (1 Bft)
21.04.2016 00:00 7,4 C 70 % 1023,5 hPa 0,0 l/m NO 0,00 h 0 W/m 5,9 km/h (2 Bft)
21.04.2016 01:00 6,8 C 71 % 1023,1 hPa 0,0 l/m NO 0,00 h 0 W/m 6,7 km/h (2 Bft)
21.04.2016 02:00 5,9 C 74 % 1022,7 hPa 0,0 l/m N-NO 0,00 h 0 W/m 7,3 km/h (2 Bft)
21.04.2016 03:00 5,0 C 78 % 1022,0 hPa 0,0 l/m N-NO 0,00 h 0 W/m 6,7 km/h (2 Bft)
21.04.2016 04:00 4,4 C 81 % 1021,8 hPa 0,0 l/m N 0,00 h 0 W/m 6,8 km/h (2 Bft)
21.04.2016 05:00 3,7 C 83 % 1021,5 hPa 0,0 l/m N 0,00 h 0 W/m 7,4 km/h (2 Bft)
21.04.2016 06:00 3,0 C 86 % 1021,7 hPa 0,0 l/m N 0,00 h 12 W/m 4,5 km/h (1 Bft)
21.04.2016 07:00 4,1 C 83 % 1022,2 hPa 0,0 l/m N 0,25 h 88 W/m 3,9 km/h (1 Bft)
21.04.2016 08:00 6,6 C 75 % 1022,2 hPa 0,0 l/m NO 1,00 h 275 W/m 7,8 km/h (2 Bft)
21.04.2016 09:00 8,8 C 71 % 1022,0 hPa 0,0 l/m NO 1,00 h 482 W/m 4,4 km/h (1 Bft)
21.04.2016 10:00 10,8 C 68 % 1021,9 hPa 0,0 l/m NO 0,75 h 495 W/m 5,1 km/h (1 Bft)
21.04.2016 11:00 12,8 C 64 % 1021,6 hPa 0,0 l/m NO 1,00 h 716 W/m 3,9 km/h (1 Bft)
21.04.2016 12:00 15,0 C 59 % 1021,3 hPa 0,0 l/m N-NO 1,00 h 826 W/m 6,8 km/h (2 Bft)
21.04.2016 13:00 17,3 C 52 % 1020,4 hPa 0,0 l/m O 1,00 h 845 W/m 9,0 km/h (2 Bft)
21.04.2016 14:00 18,2 C 50 % 1019,6 hPa 0,0 l/m NO 1,00 h 671 W/m 10,7 km/h (2 Bft)
21.04.2016 15:00 18,9 C 46 % 1018,7 hPa 0,0 l/m O-NO 1,00 h 584 W/m 10,9 km/h (2 Bft)
21.04.2016 16:00 19,8 C 42 % 1017,8 hPa 0,0 l/m O 1,00 h 592 W/m 12,5 km/h (3 Bft)
21.04.2016 17:00 19,9 C 42 % 1017,1 hPa 0,0 l/m O 1,00 h 351 W/m 11,3 km/h (2 Bft)
21.04.2016 18:00 18,8 C 46 % 1016,7 hPa 0,0 l/m O 0,67 h 172 W/m 10,5 km/h (2 Bft)
21.04.2016 19:00 17,2 C 52 % 1016,2 hPa 0,0 l/m NO 0,08 h 53 W/m 7,2 km/h (2 Bft)
21.04.2016 20:00 14,5 C 62 % 1016,2 hPa 0,0 l/m NO 0,08 h 9 W/m 3,9 km/h (1 Bft)
21.04.2016 21:00 12,2 C 68 % 1016,4 hPa 0,0 l/m N 0,00 h 0 W/m 0,3 km/h (0 Bft)
21.04.2016 22:00 11,1 C 70 % 1016,4 hPa 0,0 l/m NO 0,00 h 0 W/m 3,3 km/h (1 Bft)
21.04.2016 23:00 10,0 C 74 % 1016,4 hPa 0,0 l/m N 0,00 h 0 W/m 0,7 km/h (0 Bft)
22.04.2016 00:00 9,2 C 75 % 1016,4 hPa 0,0 l/m N 0,00 h 0 W/m 0,3 km/h (0 Bft)
22.04.2016 01:00 8,3 C 81 % 1016,4 hPa 0,0 l/m N 0,00 h 0 W/m 0,0 km/h (0 Bft)
22.04.2016 02:00 7,3 C 85 % 1016,0 hPa 0,0 l/m N 0,00 h 0 W/m 0,0 km/h (0 Bft)
22.04.2016 03:00 6,2 C 89 % 1015,9 hPa 0,0 l/m N 0,00 h 0 W/m 0,0 km/h (0 Bft)
22.04.2016 04:00 5,2 C 92 % 1015,5 hPa 0,0 l/m N 0,00 h 0 W/m 0,0 km/h (0 Bft)
22.04.2016 05:00 4,6 C 93 % 1015,5 hPa 0,0 l/m N 0,00 h 0 W/m 0,0 km/h (0 Bft)
22.04.2016 06:00 4,1 C 94 % 1015,4 hPa 0,0 l/m N 0,17 h 19 W/m 0,0 km/h (0 Bft)
22.04.2016 07:00 5,8 C 93 % 1015,3 hPa 0,0 l/m N 0,17 h 98 W/m 0,0 km/h (0 Bft)
22.04.2016 08:00 8,4 C 89 % 1015,1 hPa 0,0 l/m NO 1,00 h 289 W/m 2,7 km/h (1 Bft)
22.04.2016 09:00 12,3 C 82 % 1014,8 hPa 0,0 l/m S-SW 0,83 h 341 W/m 9,3 km/h (2 Bft)
22.04.2016 10:00 14,5 C 71 % 1014,5 hPa 0,0 l/m SW 0,83 h 474 W/m 9,8 km/h (2 Bft)
22.04.2016 11:00 15,7 C 66 % 1014,4 hPa 0,0 l/m SW 0,33 h 379 W/m 11,0 km/h (2 Bft)
22.04.2016 12:00 16,8 C 60 % 1013,7 hPa 0,0 l/m SW 0,92 h 571 W/m 13,6 km/h (3 Bft)
22.04.2016 13:00 17,8 C 53 % 1013,0 hPa 0,0 l/m S-SW 0,92 h 590 W/m 12,0 km/h (2 Bft)
22.04.2016 14:00 18,5 C 45 % 1012,4 hPa 0,0 l/m N 0,75 h 472 W/m 7,2 km/h (2 Bft)
22.04.2016 15:00 18,5 C 46 % 1011,6 hPa 0,0 l/m N 0,58 h 353 W/m 7,5 km/h (2 Bft)
22.04.2016 16:00 18,2 C 50 % 1011,0 hPa 0,0 l/m N-NO 0,08 h 276 W/m 10,1 km/h (2 Bft)
22.04.2016 17:00 18,3 C 48 % 1010,4 hPa 0,0 l/m N-NO 0,42 h 240 W/m 9,5 km/h (2 Bft)
22.04.2016 18:00 17,5 C 49 % 1010,1 hPa 0,0 l/m N-NO 0,00 h 109 W/m 10,9 km/h (2 Bft)
22.04.2016 19:00 15,4 C 51 % 1010,1 hPa 0,0 l/m N-NO 0,00 h 45 W/m 16,5 km/h (3 Bft)
22.04.2016 20:00 13,7 C 51 % 1010,2 hPa 0,0 l/m N-NO 0,00 h 7 W/m 7,9 km/h (2 Bft)
22.04.2016 21:00 12,0 C 63 % 1010,3 hPa 0,0 l/m N 0,00 h 0 W/m 0,7 km/h (0 Bft)
22.04.2016 22:00 11,3 C 65 % 1010,0 hPa 0,0 l/m N-NO 0,00 h 0 W/m 3,2 km/h (1 Bft)
22.04.2016 23:00 10,8 C 68 % 1009,8 hPa 0,0 l/m N 0,00 h 0 W/m 1,2 km/h (1 Bft)
23.04.2016 00:00 10,5 C 72 % 1009,5 hPa 0,0 l/m N 0,00 h 0 W/m 0,0 km/h (0 Bft)
23.04.2016 01:00 10,2 C 75 % 1009,1 hPa 0,0 l/m N-NO 0,00 h 0 W/m 4,4 km/h (1 Bft)
23.04.2016 02:00 9,9 C 77 % 1008,3 hPa 0,0 l/m N-NO 0,00 h 0 W/m 5,3 km/h (1 Bft)
23.04.2016 03:00 9,5 C 80 % 1007,7 hPa 0,0 l/m N 0,00 h 0 W/m 0,0 km/h (0 Bft)
23.04.2016 04:00 9,3 C 82 % 1007,0 hPa 0,0 l/m N-NO 0,00 h 0 W/m 1,9 km/h (1 Bft)
23.04.2016 05:00 9,3 C 82 % 1006,6 hPa 0,0 l/m N-NO 0,00 h 0 W/m 0,8 km/h (0 Bft)
23.04.2016 06:00 9,2 C 84 % 1006,2 hPa 0,0 l/m N-NO 0,00 h 8 W/m 0,8 km/h (0 Bft)
23.04.2016 07:00 9,1 C 88 % 1005,9 hPa 0,0 l/m N 0,00 h 22 W/m 0,0 km/h (0 Bft)
23.04.2016 08:00 9,6 C 89 % 1005,8 hPa 0,0 l/m N 0,00 h 69 W/m 0,0 km/h (0 Bft)
23.04.2016 09:00 10,1 C 85 % 1005,4 hPa 0,2 l/m N 0,00 h 91 W/m 0,0 km/h (0 Bft)
23.04.2016 10:00 10,6 C 90 % 1005,1 hPa 0,4 l/m N-NO 0,00 h 138 W/m 2,9 km/h (1 Bft)
23.04.2016 11:00 11,6 C 88 % 1005,0 hPa 0,0 l/m S 0,00 h 285 W/m 8,7 km/h (2 Bft)
23.04.2016 12:00 13,0 C 80 % 1004,5 hPa 0,0 l/m S-SW 0,33 h 393 W/m 13,0 km/h (3 Bft)
23.04.2016 13:00 13,5 C 76 % 1003,8 hPa 0,0 l/m SW 0,08 h 327 W/m 17,4 km/h (3 Bft)
23.04.2016 14:00 13,2 C 75 % 1003,3 hPa 0,0 l/m W 0,00 h 205 W/m 18,1 km/h (3 Bft)
23.04.2016 15:00 10,9 C 89 % 1003,3 hPa 3,0 l/m W-NW 0,00 h 55 W/m 13,4 km/h (3 Bft)
23.04.2016 16:00 9,8 C 94 % 1003,3 hPa 1,2 l/m W-NW 0,00 h 87 W/m 14,5 km/h (3 Bft)
23.04.2016 17:00 6,6 C 95 % 1004,1 hPa 1,2 l/m N 0,00 h 38 W/m 22,2 km/h (4 Bft)
23.04.2016 18:00 5,5 C 95 % 1005,3 hPa 0,8 l/m N 0,00 h 18 W/m 19,1 km/h (3 Bft)
23.04.2016 19:00 4,8 C 95 % 1006,2 hPa 1,0 l/m N-NO 0,00 h 11 W/m 18,4 km/h (3 Bft)
23.04.2016 20:00 4,1 C 95 % 1007,9 hPa 1,0 l/m N 0,00 h 5 W/m 20,1 km/h (4 Bft)
23.04.2016 21:00 3,4 C 95 % 1009,8 hPa 1,6 l/m N 0,00 h 0 W/m 15,3 km/h (3 Bft)
23.04.2016 22:00 3,2 C 96 % 1010,8 hPa 0,4 l/m N 0,00 h 0 W/m 8,2 km/h (2 Bft)
23.04.2016 23:00 3,3 C 95 % 1011,1 hPa 0,0 l/m N 0,00 h 0 W/m 0,1 km/h (0 Bft)
24.04.2016 00:00 3,0 C 95 % 1011,2 hPa 0,0 l/m N-NO 0,00 h 0 W/m 2,4 km/h (1 Bft)
24.04.2016 01:00 2,8 C 95 % 1011,2 hPa 0,2 l/m N 0,00 h 0 W/m 0,8 km/h (0 Bft)
24.04.2016 02:00 2,7 C 95 % 1011,2 hPa 0,0 l/m N 0,00 h 0 W/m 0,0 km/h (0 Bft)
24.04.2016 03:00 2,5 C 96 % 1011,3 hPa 0,0 l/m N 0,00 h 0 W/m 1,3 km/h (1 Bft)
24.04.2016 04:00 2,1 C 94 % 1011,3 hPa 0,0 l/m N 0,00 h 0 W/m 1,9 km/h (1 Bft)
24.04.2016 05:00 1,8 C 94 % 1011,3 hPa 0,0 l/m N-NW 0,00 h 0 W/m 3,2 km/h (1 Bft)
24.04.2016 06:00 1,6 C 94 % 1011,5 hPa 0,0 l/m N-NW 0,00 h 6 W/m 6,8 km/h (2 Bft)
24.04.2016 07:00 1,7 C 94 % 1011,8 hPa 0,0 l/m N 0,00 h 31 W/m 0,0 km/h (0 Bft)
24.04.2016 08:00 2,4 C 92 % 1011,9 hPa 0,0 l/m N 0,42 h 200 W/m 8,3 km/h (2 Bft)
24.04.2016 09:00 3,4 C 84 % 1011,9 hPa 0,0 l/m N-NO 0,58 h 336 W/m 9,3 km/h (2 Bft)
24.04.2016 10:00 3,7 C 79 % 1011,9 hPa 0,0 l/m N-NW 0,25 h 241 W/m 7,8 km/h (2 Bft)
24.04.2016 11:00 4,3 C 74 % 1012,0 hPa 0,0 l/m W-NW 0,08 h 280 W/m 9,9 km/h (2 Bft)
24.04.2016 12:00 4,8 C 70 % 1011,6 hPa 0,0 l/m W-NW 0,00 h 283 W/m 11,3 km/h (2 Bft)
24.04.2016 13:00 4,3 C 78 % 1011,6 hPa 0,0 l/m W-NW 0,17 h 378 W/m 18,5 km/h (3 Bft)
24.04.2016 14:00 5,5 C 69 % 1011,2 hPa 0,0 l/m N-NW 0,50 h 568 W/m 15,9 km/h (3 Bft)
24.04.2016 15:00 5,9 C 68 % 1010,6 hPa 0,0 l/m N 0,83 h 605 W/m 22,1 km/h (4 Bft)
24.04.2016 16:00 7,0 C 57 % 1010,2 hPa 0,0 l/m N-NW 1,00 h 564 W/m 21,8 km/h (4 Bft)
24.04.2016 17:00 5,6 C 61 % 1010,8 hPa 0,0 l/m W 0,00 h 98 W/m 21,2 km/h (4 Bft)
24.04.2016 18:00 4,7 C 73 % 1010,8 hPa 0,0 l/m W-NW 0,83 h 317 W/m 13,3 km/h (3 Bft)
24.04.2016 19:00 4,8 C 67 % 1010,9 hPa 0,0 l/m W-NW 0,17 h 39 W/m 5,5 km/h (1 Bft)
24.04.2016 20:00 3,8 C 71 % 1011,4 hPa 0,0 l/m N-NW 0,00 h 10 W/m 10,5 km/h (2 Bft)
24.04.2016 21:00 2,7 C 81 % 1012,1 hPa 0,0 l/m N 0,00 h 0 W/m 1,3 km/h (1 Bft)
24.04.2016 22:00 2,0 C 84 % 1012,4 hPa 0,0 l/m NW 0,00 h 0 W/m 2,9 km/h (1 Bft)
24.04.2016 23:00 1,5 C 88 % 1012,5 hPa 0,0 l/m NW 0,00 h 0 W/m 1,9 km/h (1 Bft)
Min-Datum _ 24.04.16 20.04.16 23.04.16 - - - - 18.04.16
_ Min-Zeit 23:15 14:50 16:25 - - - - 02:20
Minimum _ 1,4 C 40 % 1002,9 hPa - - - - 0,0 km/h (0 Bft)
Max-Datum _ 21.04.16 18.04.16 20.04.16 23.04.16 - 19.04.16 19.04.16 24.04.16
_ Max-Zeit 16:45 00:20 08:05 15:15 - 11:05 14:15 15:10
Maximum _ 20,4 C 100 % 1026,7 hPa 3,0 l/m - 0,08 h 1023 W/m 37,0 km/h
N (5 Bft)
Durchschnitt _ 8,4 C 78 % 1016,9 hPa #12,2 l/m N-NO #40:20 h 277 W/m 8,1 km/h (2 Bft)